North East, Pennsylvania
Current Conditions -  °F | °C
As of 12:51 AM on Friday 31 Oct 2014 (Local Time) from KERI Reporting Station
Broken Clouds Broken Clouds  
Wind Chill: 36°   Ceiling: 12000
Heat Index: 41°   Visibility: 10mi
Dew Point: 35°   Wind: 7mph
Humidity: 79%   Direction: 170°S
Pressure: 30.02"   Gusts: NA
Location:  42.22°N, 79.83°W
Report Text: KERI 310451Z AUTO 17006KT 10SM BKN120 05/02 A3002 RMK AO2 SLP169 T00500017 400940050
Loading
Personal Weather Stations






























Interactive Weather Map
Tropical Storm Tracking
New forecast layout! Learn more

10-Day Weather Forecast

Advertisements
Track Severe Weather on mobile